createdAt,value
2019-05-13T01:35:27.778Z,13.35
2019-05-13T01:37:59.213Z,13.32
2019-05-13T01:40:30.579Z,15.00
2019-05-13T01:43:03.603Z,14.70
2019-05-13T01:45:34.119Z,13.65
2019-05-13T01:48:07.365Z,14.20
2019-05-13T01:50:37.868Z,13.10
2019-05-13T01:53:09.105Z,12.95
2019-05-13T01:55:40.723Z,13.03
2019-05-13T01:58:14.399Z,12.73
2019-05-13T02:00:44.521Z,11.97
2019-05-13T02:03:16.241Z,14.05
2019-05-13T02:05:47.753Z,17.42
2019-05-13T02:08:18.896Z,13.25
2019-05-13T02:10:53.921Z,12.13
2019-05-13T02:13:24.821Z,14.18
2019-05-13T02:18:29.121Z,13.22
2019-05-13T02:21:00.264Z,10.68
2019-05-13T02:23:33.858Z,12.43
2019-05-13T02:26:04.704Z,15.32
2019-05-13T02:28:36.229Z,12.23
2019-05-13T02:31:07.418Z,13.08
2019-05-13T02:33:38.469Z,10.58
2019-05-13T02:36:13.152Z,11.57
2019-05-13T02:38:42.684Z,13.45
2019-05-13T02:41:14.077Z,14.87
2019-05-13T02:43:46.924Z,16.75
2019-05-13T02:46:17.998Z,11.55
2019-05-13T02:48:52.179Z,12.75
2019-05-13T02:51:23.040Z,10.48
2019-05-13T02:53:55.261Z,10.15
2019-05-13T02:56:26.141Z,12.53
2019-05-13T02:58:57.102Z,17.15
2019-05-13T03:01:28.123Z,10.18
2019-05-13T03:04:02.742Z,10.05
2019-05-13T03:06:33.101Z,15.35
2019-05-13T03:09:06.139Z,13.13
2019-05-13T03:11:37.653Z,9.70
2019-05-13T03:14:08.867Z,11.10
2019-05-13T03:16:43.132Z,12.30
2019-05-13T03:19:14.237Z,10.63
2019-05-13T03:21:45.193Z,10.08
2019-05-13T03:24:16.253Z,11.10
2019-05-13T03:26:47.360Z,9.78
2019-05-13T03:29:18.485Z,8.95
2019-05-13T03:31:54.876Z,9.08
2019-05-13T03:34:26.542Z,20.00
2019-05-13T03:36:56.886Z,11.88
2019-05-13T03:39:27.823Z,13.20
2019-05-13T03:44:32.218Z,9.10
2019-05-13T03:47:03.498Z,16.07
2019-05-13T03:49:37.341Z,9.33
2019-05-13T03:52:08.285Z,12.05
2019-05-13T03:54:43.334Z,17.65
2019-05-13T03:57:12.696Z,11.88
2019-05-13T03:59:44.020Z,10.23
2019-05-13T04:02:15.187Z,8.43
2019-05-13T04:04:46.160Z,9.30
2019-05-13T04:07:17.241Z,10.18
2019-05-13T04:09:48.421Z,13.38
2019-05-13T04:12:22.609Z,8.47
2019-05-13T04:14:52.807Z,11.40
2019-05-13T04:17:24.688Z,9.48
2019-05-13T04:19:55.912Z,12.37
2019-05-13T04:22:33.026Z,10.43
2019-05-13T04:25:02.787Z,14.85
2019-05-13T04:27:33.772Z,16.57
2019-05-13T04:30:05.195Z,11.93
2019-05-13T04:32:37.916Z,12.85
2019-05-13T04:35:12.223Z,14.13
2019-05-13T04:37:43.160Z,24.30
2019-05-13T04:40:14.439Z,11.10
2019-05-13T04:42:45.931Z,12.27
2019-05-13T04:45:17.202Z,11.00
2019-05-13T04:47:52.540Z,8.63
2019-05-13T04:50:22.758Z,8.23
2019-05-13T04:52:54.927Z,9.73
2019-05-13T04:55:26.232Z,7.70
2019-05-13T04:57:57.563Z,7.73
2019-05-13T05:00:32.321Z,7.63
2019-05-13T05:03:05.862Z,6.83
2019-05-13T05:05:41.889Z,6.85
2019-05-13T05:08:14.571Z,8.03
2019-05-13T05:10:50.128Z,7.83
2019-05-13T05:13:23.929Z,6.90
2019-05-13T05:15:57.311Z,8.20
2019-05-13T05:18:32.683Z,7.42
2019-05-13T05:21:06.645Z,6.87
2019-05-13T05:23:42.155Z,7.62
2019-05-13T05:26:15.365Z,6.87
2019-05-13T05:28:51.777Z,6.87
2019-05-13T05:31:24.064Z,7.35
2019-05-13T05:33:57.625Z,7.08
2019-05-13T05:36:32.148Z,6.62
2019-05-13T05:39:07.192Z,7.17
2019-05-13T05:41:38.527Z,7.08
2019-05-13T05:44:12.376Z,6.37
2019-05-13T05:46:43.014Z,6.60
2019-05-13T05:49:14.203Z,6.33
2019-05-13T05:51:45.340Z,6.83
2019-05-13T05:54:16.514Z,6.23
2019-05-13T05:56:48.882Z,6.47
2019-05-13T05:59:21.844Z,6.17
2019-05-13T06:01:52.745Z,8.73
2019-05-13T06:04:24.253Z,8.75
2019-05-13T06:06:57.478Z,8.10
2019-05-13T06:09:32.050Z,7.83
2019-05-13T06:12:02.359Z,9.63
2019-05-13T06:14:33.551Z,8.13
2019-05-13T06:17:04.521Z,8.17
2019-05-13T06:19:37.066Z,7.67
2019-05-13T06:22:08.404Z,7.35
2019-05-13T06:24:42.107Z,7.97
2019-05-13T06:27:13.023Z,7.50
2019-05-13T06:29:44.403Z,7.72
2019-05-13T06:32:22.456Z,7.80
2019-05-13T06:34:48.753Z,7.75
2019-05-13T06:37:21.676Z,7.93
2019-05-13T06:39:52.531Z,8.20
2019-05-13T06:42:24.576Z,8.57
2019-05-13T06:47:26.238Z,8.80
2019-05-13T06:49:57.765Z,9.68
2019-05-13T06:52:28.936Z,8.88
2019-05-13T06:55:02.514Z,9.50
2019-05-13T06:57:32.380Z,9.50
2019-05-13T07:00:03.316Z,9.28
2019-05-13T07:02:34.284Z,9.08
2019-05-13T07:05:06.218Z,9.05
2019-05-13T07:07:37.232Z,8.40
2019-05-13T07:10:09.156Z,7.92
2019-05-13T07:12:41.158Z,8.25
2019-05-13T07:17:43.456Z,8.88
2019-05-13T07:20:14.518Z,8.48
2019-05-13T07:22:45.580Z,15.32
2019-05-13T07:25:18.300Z,10.68
2019-05-13T07:27:51.537Z,8.90
2019-05-13T07:30:24.313Z,7.70
2019-05-13T07:32:56.295Z,6.45
2019-05-13T07:37:58.867Z,6.87
2019-05-13T07:40:32.068Z,6.72
2019-05-13T07:43:02.163Z,12.18
2019-05-13T07:45:33.230Z,6.60
2019-05-13T07:48:18.359Z,9.65
2019-05-13T07:50:51.246Z,6.78
2019-05-13T07:53:12.224Z,6.72
2019-05-13T07:58:13.007Z,8.47
2019-05-13T08:00:44.423Z,6.95
2019-05-13T08:03:15.463Z,6.75
2019-05-13T08:05:46.598Z,5.22
2019-05-13T08:08:17.939Z,5.30
2019-05-13T08:10:48.804Z,9.40
2019-05-13T08:13:22.279Z,5.53
2019-05-13T08:15:54.624Z,4.90
2019-05-13T08:18:24.703Z,4.92
2019-05-13T08:20:55.852Z,4.00
2019-05-13T08:23:27.043Z,4.67
2019-05-13T08:25:57.841Z,4.40
2019-05-13T08:28:32.034Z,4.15
2019-05-13T08:31:02.066Z,4.58
2019-05-13T08:33:33.486Z,4.50
2019-05-13T08:36:06.161Z,5.20
2019-05-13T08:38:38.618Z,4.05
2019-05-13T08:41:15.303Z,4.42
2019-05-13T08:43:42.386Z,4.33
2019-05-13T08:46:13.561Z,5.47
2019-05-13T08:48:44.782Z,5.03
2019-05-13T08:51:16.116Z,5.17
2019-05-13T08:53:47.227Z,5.63
2019-05-13T08:56:18.436Z,5.50
2019-05-13T08:58:51.414Z,5.87
2019-05-13T09:01:22.715Z,5.85
2019-05-13T09:06:24.005Z,5.22
2019-05-13T09:08:55.140Z,5.17
2019-05-13T09:11:26.259Z,5.47
2019-05-13T09:13:57.774Z,6.08
2019-05-13T09:16:28.861Z,5.37
2019-05-13T09:19:03.702Z,6.03
2019-05-13T09:21:32.861Z,5.55
2019-05-13T09:24:20.373Z,6.57
2019-05-13T09:29:07.236Z,6.00
2019-05-13T09:31:38.599Z,6.30
2019-05-13T09:34:11.902Z,6.10
2019-05-13T09:36:42.186Z,5.72
2019-05-13T09:39:13.153Z,5.72
2019-05-13T09:41:45.495Z,5.87
2019-05-13T09:44:16.775Z,5.15
2019-05-13T09:46:47.977Z,5.90
2019-05-13T09:49:20.860Z,11.60
2019-05-13T09:51:52.406Z,7.47
2019-05-13T09:54:23.709Z,4.90
2019-05-13T09:56:54.865Z,10.63
2019-05-13T09:59:26.504Z,5.67
2019-05-13T10:01:58.087Z,4.65
2019-05-13T10:04:31.381Z,5.85
2019-05-13T10:07:02.389Z,6.70
2019-05-13T10:09:33.466Z,6.37
2019-05-13T10:12:04.412Z,6.22
2019-05-13T10:14:35.808Z,5.53
2019-05-13T10:17:07.219Z,6.65
2019-05-13T10:19:38.536Z,5.50
2019-05-13T10:22:11.790Z,6.40
2019-05-13T10:24:43.477Z,5.72
2019-05-13T10:27:18.680Z,6.05
2019-05-13T10:29:46.932Z,5.67
2019-05-13T10:32:18.348Z,6.20
2019-05-13T10:34:51.953Z,6.60
2019-05-13T10:37:22.405Z,6.05
2019-05-13T10:39:53.534Z,7.92
2019-05-13T10:42:25.596Z,6.75
2019-05-13T10:45:02.662Z,8.40
2019-05-13T10:47:34.846Z,9.05
2019-05-13T10:50:08.677Z,9.20
2019-05-13T10:52:42.543Z,10.00
2019-05-13T10:55:13.034Z,9.58
2019-05-13T10:57:44.252Z,10.00
2019-05-13T11:00:16.513Z,10.15
2019-05-13T11:02:47.864Z,10.05
2019-05-13T11:05:19.137Z,9.70
2019-05-13T11:07:51.751Z,10.67
2019-05-13T11:10:27.067Z,10.32
2019-05-13T11:12:57.661Z,10.15
2019-05-13T11:15:32.848Z,10.30
2019-05-13T11:18:03.162Z,10.35
2019-05-13T11:20:34.768Z,10.30
2019-05-13T11:23:05.712Z,10.30
2019-05-13T11:25:37.291Z,10.43
2019-05-13T11:28:08.710Z,10.98
2019-05-13T11:30:42.170Z,10.80
2019-05-13T11:33:12.614Z,10.75
2019-05-13T11:35:44.188Z,10.65
2019-05-13T11:38:15.604Z,11.35
2019-05-13T11:40:46.535Z,10.87
2019-05-13T11:43:17.867Z,11.28
2019-05-13T11:45:50.845Z,10.70
2019-05-13T11:48:23.594Z,10.43
2019-05-13T11:50:55.315Z,10.82
2019-05-13T11:53:33.212Z,11.53
2019-05-13T11:56:03.534Z,10.68
2019-05-13T11:58:34.001Z,11.70
2019-05-13T12:01:06.378Z,10.95
2019-05-13T12:03:37.823Z,11.33
2019-05-13T12:06:09.165Z,11.03
2019-05-13T12:08:50.137Z,11.83
2019-05-13T12:11:13.965Z,11.55
2019-05-13T12:13:45.539Z,11.90
2019-05-13T12:16:22.452Z,12.23
2019-05-13T12:18:52.832Z,11.88
2019-05-13T12:21:24.903Z,12.23
2019-05-13T12:23:56.276Z,12.03
2019-05-13T12:26:28.279Z,11.63
2019-05-13T12:29:02.529Z,14.20
2019-05-13T12:31:33.657Z,14.70
2019-05-13T12:34:04.453Z,15.35
2019-05-13T12:36:35.951Z,16.48
2019-05-13T12:39:13.998Z,16.30
2019-05-13T12:41:43.018Z,16.27
2019-05-13T12:44:17.460Z,14.65
2019-05-13T12:46:50.554Z,14.73
2019-05-13T12:49:22.001Z,14.23
2019-05-13T12:54:25.389Z,13.48
2019-05-13T12:56:56.926Z,13.60
2019-05-13T12:59:31.556Z,11.73
2019-05-13T13:02:03.272Z,12.53
2019-05-13T13:04:34.213Z,11.35
2019-05-13T13:07:05.614Z,11.53
2019-05-13T13:09:36.589Z,10.90
2019-05-13T13:12:07.890Z,10.43
2019-05-13T13:14:44.303Z,9.83
2019-05-13T13:17:15.006Z,10.23
2019-05-13T13:19:45.896Z,10.50
2019-05-13T13:22:17.594Z,11.10
2019-05-13T13:24:55.753Z,11.03
2019-05-13T13:27:37.779Z,11.93
2019-05-13T13:30:03.079Z,11.43
2019-05-13T13:32:33.289Z,10.55
2019-05-13T13:35:08.634Z,11.08
2019-05-13T13:37:46.034Z,12.03
2019-05-13T13:40:20.254Z,11.80
2019-05-13T13:42:47.289Z,12.15
2019-05-13T13:45:22.851Z,12.53
2019-05-13T13:48:02.889Z,13.20
2019-05-13T13:50:25.765Z,11.88
2019-05-13T13:52:56.943Z,13.43
2019-05-13T13:55:31.422Z,14.43
2019-05-13T13:58:02.241Z,14.80
2019-05-13T14:03:06.456Z,15.03
2019-05-13T14:05:37.326Z,14.95
2019-05-13T14:08:08.588Z,13.30
2019-05-13T14:10:41.851Z,13.93
2019-05-13T14:13:12.580Z,13.88
2019-05-13T14:15:43.618Z,12.63
2019-05-13T14:18:16.401Z,12.80
2019-05-13T14:20:47.447Z,11.83
2019-05-13T14:23:21.306Z,11.18
2019-05-13T14:25:53.570Z,10.63
2019-05-13T14:28:24.624Z,5.80
2019-05-13T14:30:56.367Z,3.90
2019-05-13T14:33:31.374Z,3.90
2019-05-13T14:36:01.506Z,3.80
2019-05-13T14:41:08.560Z,3.90
2019-05-13T14:43:37.576Z,3.75
2019-05-13T14:46:08.686Z,3.80
2019-05-13T14:48:39.791Z,3.25
2019-05-13T14:51:12.263Z,3.87
2019-05-13T14:53:43.946Z,3.52
2019-05-13T14:56:15.375Z,3.27
2019-05-13T14:58:46.537Z,3.20
2019-05-13T15:01:22.293Z,3.00
2019-05-13T15:03:51.960Z,3.00
2019-05-13T15:08:57.695Z,3.27
2019-05-13T15:11:48.173Z,2.80
2019-05-13T15:14:22.011Z,2.92
2019-05-13T15:17:02.753Z,2.80
2019-05-13T15:19:26.222Z,3.27
2019-05-13T15:21:57.566Z,3.12
2019-05-13T15:24:28.729Z,3.40
2019-05-13T15:27:00.005Z,3.30
2019-05-13T15:29:31.305Z,3.27
2019-05-13T15:32:03.105Z,3.40
2019-05-13T15:34:34.531Z,3.30
2019-05-13T15:37:06.004Z,2.90
2019-05-13T15:39:37.459Z,2.95
2019-05-13T15:42:09.268Z,2.97
2019-05-13T15:44:40.421Z,2.80
2019-05-13T15:47:22.959Z,1.90
2019-05-13T15:49:44.439Z,1.90
2019-05-13T15:52:15.840Z,2.07
2019-05-13T15:54:47.090Z,2.07
2019-05-13T15:57:18.116Z,1.95
2019-05-13T15:59:51.613Z,1.82
2019-05-13T16:02:22.631Z,1.98
2019-05-13T16:05:00.995Z,1.70
2019-05-13T16:07:27.210Z,2.20
2019-05-13T16:10:01.863Z,1.80
2019-05-13T16:12:32.100Z,1.92
2019-05-13T16:15:03.167Z,1.52
2019-05-13T16:17:41.087Z,1.85
2019-05-13T16:20:09.275Z,1.47
2019-05-13T16:22:41.967Z,1.55
2019-05-13T16:25:13.607Z,1.30
2019-05-13T16:27:44.951Z,1.35
2019-05-13T16:30:22.344Z,1.32
2019-05-13T16:32:54.171Z,1.50
2019-05-13T16:35:25.574Z,1.80
2019-05-13T16:37:56.945Z,1.57
2019-05-13T16:40:27.921Z,1.37
2019-05-13T16:43:01.201Z,1.35
2019-05-13T16:45:31.781Z,1.40
2019-05-13T16:48:04.221Z,1.40
2019-05-13T16:50:35.665Z,1.45
2019-05-13T16:53:07.012Z,1.80
2019-05-13T16:55:38.648Z,1.80
2019-05-13T16:58:12.361Z,1.50
2019-05-13T17:00:42.614Z,1.50
2019-05-13T17:03:14.599Z,1.70
2019-05-13T17:05:45.694Z,1.72
2019-05-13T17:08:18.093Z,1.70
2019-05-13T17:13:22.122Z,1.30
2019-05-13T17:15:56.320Z,1.47
2019-05-13T17:18:27.385Z,1.50
2019-05-13T17:20:58.319Z,1.55
2019-05-13T17:23:29.857Z,2.00
2019-05-13T17:26:02.637Z,1.80
2019-05-13T17:28:34.817Z,1.45
2019-05-13T17:31:05.729Z,1.75
2019-05-13T17:33:36.753Z,1.60
2019-05-13T17:36:07.740Z,1.90
2019-05-13T17:38:38.873Z,1.87
2019-05-13T17:41:12.039Z,1.50
2019-05-13T17:43:42.438Z,1.72
2019-05-13T17:46:13.954Z,1.60
2019-05-13T17:48:46.191Z,1.80
2019-05-13T17:51:17.862Z,1.82
2019-05-13T17:53:49.118Z,2.08
2019-05-13T17:56:21.648Z,1.77
2019-05-13T18:01:23.667Z,1.75
2019-05-13T18:03:55.828Z,1.60
2019-05-13T18:06:27.022Z,1.70
2019-05-13T18:08:57.913Z,1.57
2019-05-13T18:11:29.027Z,1.45
2019-05-13T18:14:01.281Z,2.00
2019-05-13T18:19:03.548Z,1.82
2019-05-13T18:21:34.858Z,2.00
2019-05-13T18:24:05.926Z,2.02
2019-05-13T18:26:37.361Z,1.95
2019-05-13T18:29:08.745Z,2.08
2019-05-13T18:31:42.022Z,2.22
2019-05-13T18:34:12.473Z,2.10
2019-05-13T18:36:43.859Z,2.60
2019-05-13T18:39:21.578Z,2.58
2019-05-13T18:41:51.947Z,2.50
2019-05-13T18:44:23.305Z,2.47
2019-05-13T18:46:54.331Z,2.53
2019-05-13T18:49:25.670Z,3.10
2019-05-13T18:51:57.059Z,2.62
2019-05-13T18:54:28.376Z,2.90
